Time;durP1;ratioP1;P1;durP2;ratioP2;P2;SDS_P1;SDS_P2;PMS_P1;PMS_P2;Temp;Humidity;BMP_temperature;BMP_pressure;BME280_temperature;BME280_humidity;BME280_pressure;Samples;Min_cycle;Max_cycle;Signal;HPM_P1;HPM_P2
2022/04/08 00:02:09;;;;;;;2.38;1.25;;;6.60;99.90;;;;;;5075940;28;20376;-88
2022/04/08 00:04:34;;;;;;;3.13;1.30;;;6.60;99.90;;;;;;5057583;28;20099;-92
2022/04/08 00:07:01;;;;;;;5.15;1.52;;;6.60;99.90;;;;;;5072848;28;20048;-91
2022/04/08 00:09:29;;;;;;;4.22;1.25;;;6.50;99.90;;;;;;5057102;28;20028;-87
2022/04/08 00:11:55;;;;;;;1.40;1.13;;;6.60;99.90;;;;;;5075159;28;20017;-88
2022/04/08 00:14:21;;;;;;;5.10;0.98;;;6.50;99.90;;;;;;5075189;28;20074;-91
2022/04/08 00:17:05;;;;;;;4.05;1.25;;;6.50;99.90;;;;;;5056961;28;20024;-88
2022/04/08 00:19:31;;;;;;;2.35;1.10;;;6.40;99.90;;;;;;5057339;28;20402;-89
2022/04/08 00:21:58;;;;;;;6.55;2.15;;;6.50;99.90;;;;;;5074541;28;20056;-88
2022/04/08 00:25:05;;;;;;;3.70;1.25;;;6.50;99.90;;;;;;5074626;28;20036;-88
2022/04/08 00:27:30;;;;;;;1.55;1.20;;;6.50;99.90;;;;;;5074467;28;20021;-90
2022/04/08 00:29:56;;;;;;;2.78;1.02;;;6.50;99.90;;;;;;5056982;28;20025;-91
2022/04/08 00:32:56;;;;;;;3.28;1.20;;;6.40;99.90;;;;;;5074671;28;20032;-88
2022/04/08 00:35:21;;;;;;;4.25;1.50;;;6.50;99.90;;;;;;5036740;28;20025;-89
2022/04/08 00:37:47;;;;;;;2.75;1.23;;;6.40;99.90;;;;;;5070305;28;20056;-91
2022/04/08 00:40:41;;;;;;;9.77;1.63;;;6.40;99.90;;;;;;5056940;28;20062;-90
2022/04/08 00:43:15;;;;;;;6.53;1.20;;;6.40;99.90;;;;;;5074322;28;20031;-89
2022/04/08 00:45:41;;;;;;;3.50;1.40;;;6.40;99.90;;;;;;5056777;28;20021;-88
2022/04/08 00:48:12;;;;;;;1.88;1.00;;;6.30;99.90;;;;;;5074171;28;20111;-88
2022/04/08 00:50:39;;;;;;;6.97;1.38;;;6.40;99.90;;;;;;5054583;28;20029;-90
2022/04/08 00:53:06;;;;;;;1.38;1.20;;;6.40;99.90;;;;;;5036296;28;20377;-90
2022/04/08 00:55:38;;;;;;;2.28;1.42;;;6.40;99.90;;;;;;5073500;28;20031;-86
2022/04/08 00:58:04;;;;;;;3.72;1.17;;;6.50;99.90;;;;;;5055749;28;20435;-85
2022/04/08 01:00:38;;;;;;;6.47;1.35;;;6.50;99.90;;;;;;5073909;28;20021;-88
2022/04/08 01:03:12;;;;;;;10.45;1.33;;;6.50;99.90;;;;;;5073652;28;20023;-86
2022/04/08 01:05:37;;;;;;;1.90;1.10;;;6.50;99.90;;;;;;5073869;28;20028;-87
2022/04/08 01:08:04;;;;;;;4.43;1.30;;;6.40;99.90;;;;;;5072573;28;20051;-86
2022/04/08 01:10:50;;;;;;;8.23;1.50;;;6.40;99.90;;;;;;5055637;28;20028;-87
2022/04/08 01:13:16;;;;;;;6.53;1.55;;;6.40;99.90;;;;;;5073591;28;20021;-87
2022/04/08 01:16:07;;;;;;;2.67;1.30;;;6.40;99.90;;;;;;5055857;28;20027;-88
2022/04/08 01:18:33;;;;;;;4.03;1.50;;;6.50;99.90;;;;;;5055730;28;20074;-88
2022/04/08 01:21:09;;;;;;;8.13;1.50;;;6.40;99.90;;;;;;5055600;28;20032;-89
2022/04/08 01:23:36;;;;;;;5.75;1.50;;;6.50;99.90;;;;;;5073204;28;20021;-87
2022/04/08 01:26:08;;;;;;;5.30;1.65;;;6.50;99.90;;;;;;5073448;28;20074;-87
2022/04/08 01:28:47;;;;;;;2.70;1.52;;;6.50;99.90;;;;;;5055818;28;20027;-89
2022/04/08 01:31:13;;;;;;;10.23;1.65;;;6.60;99.90;;;;;;5055728;28;20028;-89
2022/04/08 01:33:39;;;;;;;4.85;1.63;;;6.60;99.90;;;;;;5073248;28;20074;-87
2022/04/08 01:36:20;;;;;;;3.13;1.05;;;6.70;99.90;;;;;;5073196;28;20029;-89
2022/04/08 01:38:46;;;;;;;5.10;1.27;;;6.70;99.90;;;;;;5073598;28;20086;-89
2022/04/08 01:41:11;;;;;;;2.55;1.25;;;6.70;99.90;;;;;;5055666;28;20411;-89
2022/04/08 01:43:51;;;;;;;4.00;1.67;;;6.70;99.90;;;;;;5073178;28;20391;-87
2022/04/08 01:46:17;;;;;;;4.32;1.30;;;6.80;99.90;;;;;;5073538;28;20036;-88
2022/04/08 01:48:42;;;;;;;3.13;1.25;;;6.70;99.90;;;;;;5073121;28;20115;-90
2022/04/08 01:51:36;;;;;;;3.40;1.45;;;6.80;99.90;;;;;;5073054;28;20036;-88
2022/04/08 01:54:01;;;;;;;5.15;1.33;;;6.70;99.90;;;;;;5053288;28;20393;-91
2022/04/08 01:56:27;;;;;;;3.25;1.27;;;6.70;99.90;;;;;;5035657;28;20032;-91
2022/04/08 01:59:11;;;;;;;7.50;2.13;;;6.70;99.90;;;;;;5035605;28;20032;-90
2022/04/08 02:01:37;;;;;;;5.15;1.52;;;6.60;99.90;;;;;;5053646;28;20186;-89
2022/04/08 02:04:11;;;;;;;8.10;1.67;;;6.60;99.90;;;;;;5035190;28;20071;-90
2022/04/08 02:06:55;;;;;;;2.72;1.10;;;6.60;99.90;;;;;;5034558;28;20381;-92
2022/04/08 02:09:21;;;;;;;9.88;1.60;;;6.60;99.90;;;;;;5035465;28;20040;-90
2022/04/08 02:11:46;;;;;;;4.07;1.50;;;6.60;99.90;;;;;;5053164;28;20032;-90
2022/04/08 02:14:18;;;;;;;4.72;1.80;;;6.70;99.90;;;;;;5035156;28;20029;-91
2022/04/08 02:16:43;;;;;;;2.13;1.17;;;6.60;99.90;;;;;;5053359;28;20091;-92
2022/04/08 02:19:09;;;;;;;7.13;1.65;;;6.60;99.90;;;;;;5052065;28;20021;-88
2022/04/08 02:21:37;;;;;;;10.20;4.72;;;6.60;99.90;;;;;;5054956;28;20036;-90
2022/04/08 02:24:03;;;;;;;3.85;1.40;;;6.60;99.90;;;;;;5073089;28;20029;-91
2022/04/08 02:26:47;;;;;;;5.85;1.40;;;6.60;99.90;;;;;;5073001;28;20021;-90
2022/04/08 02:29:13;;;;;;;5.90;1.20;;;6.60;99.90;;;;;;5072870;28;20480;-88
2022/04/08 02:32:04;;;;;;;10.82;2.13;;;6.50;99.90;;;;;;5054645;28;20078;-89
2022/04/08 02:34:30;;;;;;;13.88;1.80;;;6.50;99.90;;;;;;5054570;28;20079;-90
2022/04/08 02:36:55;;;;;;;6.45;1.30;;;6.50;99.90;;;;;;5073032;28;20104;-92
2022/04/08 02:39:55;;;;;;;6.55;1.27;;;6.50;99.90;;;;;;5054920;28;20491;-89
2022/04/08 02:42:21;;;;;;;4.22;1.58;;;6.40;99.90;;;;;;5072854;28;20388;-88
2022/04/08 02:44:46;;;;;;;5.57;1.70;;;6.50;99.90;;;;;;5072480;28;20032;-90
2022/04/08 02:47:14;;;;;;;3.53;1.40;;;6.40;99.90;;;;;;5054646;28;20396;-90
2022/04/08 02:49:40;;;;;;;4.68;1.40;;;6.40;99.90;;;;;;5072603;28;20025;-90
2022/04/08 02:52:06;;;;;;;7.13;1.90;;;6.40;99.90;;;;;;5072718;28;20028;-89
2022/04/08 02:54:49;;;;;;;7.32;1.75;;;6.40;99.90;;;;;;5054740;28;20021;-92
2022/04/08 02:57:14;;;;;;;6.95;1.70;;;6.40;99.90;;;;;;5054676;28;20028;-87
2022/04/08 02:59:39;;;;;;;6.82;1.80;;;6.50;99.90;;;;;;5054726;28;20021;-90
2022/04/08 03:02:53;;;;;;;4.50;1.55;;;6.50;99.90;;;;;;5054544;28;20024;-90
2022/04/08 03:05:18;;;;;;;5.82;1.80;;;6.50;99.90;;;;;;5034610;28;20447;-89
2022/04/08 03:07:46;;;;;;;4.80;1.75;;;6.50;99.90;;;;;;5031890;28;20083;-89
2022/04/08 03:10:12;;;;;;;5.63;1.70;;;6.40;99.90;;;;;;5070138;28;20051;-90
2022/04/08 03:12:57;;;;;;;6.32;1.48;;;6.40;99.90;;;;;;5072457;28;20422;-90
2022/04/08 03:15:22;;;;;;;5.07;1.77;;;6.40;99.90;;;;;;5052557;28;20029;-91
2022/04/08 03:17:51;;;;;;;5.03;1.40;;;6.30;99.90;;;;;;5052375;28;20032;-89
2022/04/08 03:20:23;;;;;;;5.60;1.73;;;6.40;99.90;;;;;;5047290;28;20020;-88
2022/04/08 03:22:49;;;;;;;3.10;1.30;;;6.40;99.90;;;;;;5076351;28;20417;-90
2022/04/08 03:25:22;;;;;;;3.83;1.67;;;6.30;99.90;;;;;;5058011;28;20127;-89
2022/04/08 03:27:47;;;;;;;5.40;1.52;;;6.40;99.90;;;;;;5057876;28;20028;-89
2022/04/08 03:30:51;;;;;;;5.13;1.48;;;6.40;99.90;;;;;;5075902;28;20138;-91
2022/04/08 03:33:17;;;;;;;3.45;1.30;;;6.40;99.90;;;;;;5076057;28;20024;-91
2022/04/08 03:35:42;;;;;;;5.88;1.73;;;6.40;99.90;;;;;;5058105;28;20424;-90
2022/04/08 03:38:09;;;;;;;3.88;1.48;;;6.40;99.90;;;;;;5076090;28;20076;-92
2022/04/08 03:40:35;;;;;;;8.50;1.70;;;6.40;99.90;;;;;;5076111;28;20487;-89
2022/04/08 03:43:01;;;;;;;3.78;2.25;;;6.30;99.90;;;;;;5076159;28;20383;-90
2022/04/08 03:46:05;;;;;;;4.68;1.92;;;6.20;99.90;;;;;;5058419;28;20025;-91
2022/04/08 03:48:31;;;;;;;4.25;2.20;;;6.10;99.90;;;;;;5038255;28;20025;-92
2022/04/08 03:50:56;;;;;;;6.35;2.03;;;6.00;99.90;;;;;;5038336;28;20492;-92
2022/04/08 03:54:08;;;;;;;4.78;1.90;;;5.90;99.90;;;;;;5055777;28;20024;-91
2022/04/08 03:56:34;;;;;;;4.85;2.00;;;5.80;99.90;;;;;;5038232;28;20032;-92
2022/04/08 03:59:00;;;;;;;4.70;2.05;;;5.70;99.90;;;;;;5038386;28;20025;-93
2022/04/08 04:01:36;;;;;;;2.20;2.00;;;5.70;99.90;;;;;;5038440;28;20119;-92
2022/04/08 04:04:03;;;;;;;3.60;2.15;;;5.70;99.90;;;;;;5038289;28;20028;-93
2022/04/08 04:06:29;;;;;;;2.15;1.90;;;5.60;99.90;;;;;;5038339;28;20044;-91
2022/04/08 04:09:02;;;;;;;5.65;2.00;;;5.60;99.90;;;;;;5032065;28;20466;-90
2022/04/08 04:11:27;;;;;;;3.28;1.88;;;5.60;99.90;;;;;;5034688;28;20029;-90
2022/04/08 04:13:53;;;;;;;5.53;2.03;;;5.50;99.90;;;;;;5036657;28;20093;-93
2022/04/08 04:19:41;;;;;;;2.97;1.65;;;5.40;99.90;;;;;;5036158;28;20033;-94
2022/04/08 04:22:59;;;;;;;5.28;1.77;;;5.40;99.90;;;;;;5035114;28;20022;-93
2022/04/08 04:25:25;;;;;;;2.35;1.70;;;5.40;99.90;;;;;;5035955;28;20021;-91
2022/04/08 04:27:51;;;;;;;2.65;1.83;;;5.30;99.90;;;;;;5035359;28;20036;-94
2022/04/08 04:30:43;;;;;;;5.10;1.88;;;5.30;99.90;;;;;;5035475;28;20470;-91
2022/04/08 04:33:11;;;;;;;2.45;1.70;;;5.30;99.90;;;;;;5035474;28;20140;-94
2022/04/08 04:35:38;;;;;;;3.95;1.98;;;5.20;99.90;;;;;;5036328;28;20389;-93
2022/04/08 04:38:51;;;;;;;4.97;2.38;;;5.10;99.90;;;;;;5037725;28;20030;-94
2022/04/08 04:41:20;;;;;;;2.53;2.10;;;5.00;99.90;;;;;;5046654;28;20116;-90
2022/04/08 04:43:45;;;;;;;3.00;2.13;;;5.00;99.90;;;;;;5053594;28;20037;-90
2022/04/08 04:46:22;;;;;;;3.10;1.95;;;5.00;99.90;;;;;;5054760;28;20094;-93
2022/04/08 04:48:48;;;;;;;2.33;1.95;;;5.00;99.90;;;;;;5054211;28;20392;-89
2022/04/08 04:51:16;;;;;;;2.08;1.98;;;5.00;99.90;;;;;;5054693;28;20074;-91
2022/04/08 04:53:42;;;;;;;3.53;1.98;;;5.00;99.90;;;;;;5053473;28;20017;-90
2022/04/08 04:56:08;;;;;;;4.50;1.95;;;5.00;99.90;;;;;;5053333;28;20025;-89
2022/04/08 04:58:33;;;;;;;3.10;1.83;;;5.00;99.90;;;;;;5054561;28;20025;-90
2022/04/08 05:01:27;;;;;;;2.08;1.52;;;5.10;99.90;;;;;;5053568;28;20029;-91
2022/04/08 05:03:53;;;;;;;2.95;1.73;;;5.00;99.90;;;;;;5054328;28;20057;-90
2022/04/08 05:06:25;;;;;;;1.38;1.30;;;5.10;99.90;;;;;;5053214;28;20032;-90
2022/04/08 05:08:51;;;;;;;1.90;1.40;;;5.10;99.90;;;;;;5053763;28;20492;-89
2022/04/08 05:11:17;;;;;;;2.92;1.40;;;5.10;99.90;;;;;;5070666;28;20051;-89
2022/04/08 05:13:48;;;;;;;2.95;1.52;;;5.10;99.90;;;;;;5073413;28;20025;-89
2022/04/08 05:16:13;;;;;;;3.10;1.45;;;5.00;99.90;;;;;;5055512;28;20713;-89
2022/04/08 05:18:39;;;;;;;3.33;1.50;;;5.00;99.90;;;;;;5073464;28;20027;-85
2022/04/08 05:21:10;;;;;;;1.30;1.27;;;5.00;99.90;;;;;;5072950;28;20431;-85
2022/04/08 05:23:36;;;;;;;3.97;1.42;;;5.00;99.90;;;;;;5054964;28;20492;-83
2022/04/08 05:26:10;;;;;;;3.38;1.45;;;5.00;99.90;;;;;;5072424;28;20043;-87
2022/04/08 05:28:36;;;;;;;1.85;1.20;;;5.10;99.90;;;;;;5054734;28;20036;-85
2022/04/08 05:31:02;;;;;;;3.85;1.92;;;5.10;99.90;;;;;;5073111;28;20016;-88
2022/04/08 05:33:27;;;;;;;1.98;0.98;;;5.10;99.90;;;;;;5072601;28;20027;-86
2022/04/08 05:35:55;;;;;;;7.10;2.88;;;5.20;99.90;;;;;;5072101;28;20032;-84
2022/04/08 05:38:20;;;;;;;1.02;1.02;;;5.20;99.90;;;;;;5072992;28;20028;-85
2022/04/08 05:40:49;;;;;;;4.50;2.00;;;5.20;99.90;;;;;;5072866;28;20099;-86
2022/04/08 05:43:16;;;;;;;4.95;2.25;;;5.20;99.90;;;;;;5071894;28;20028;-87
2022/04/08 05:45:41;;;;;;;1.58;0.80;;;5.30;99.90;;;;;;5072809;28;20496;-91
2022/04/08 05:48:07;;;;;;;2.75;0.80;;;5.30;99.90;;;;;;5055114;28;20031;-84
2022/04/08 05:50:34;;;;;;;0.90;0.90;;;5.30;99.90;;;;;;5054518;28;20036;-85
2022/04/08 05:53:00;;;;;;;1.30;1.00;;;5.30;99.90;;;;;;5072884;28;20111;-84
2022/04/08 05:55:45;;;;;;;6.65;2.38;;;5.30;99.90;;;;;;5072917;28;20463;-87
2022/04/08 05:58:11;;;;;;;1.35;1.02;;;5.40;99.90;;;;;;5054859;28;20098;-84
2022/04/08 06:00:39;;;;;;;1.63;1.17;;;5.40;99.90;;;;;;5072774;28;20468;-85
2022/04/08 06:03:05;;;;;;;6.25;1.77;;;5.40;99.90;;;;;;5054764;28;20114;-84
2022/04/08 06:05:39;;;;;;;1.08;0.85;;;5.40;99.90;;;;;;5072330;28;20064;-84
2022/04/08 06:08:05;;;;;;;3.00;1.40;;;5.30;99.90;;;;;;5072583;28;20029;-86
2022/04/08 06:10:30;;;;;;;1.63;1.20;;;5.20;99.90;;;;;;5051143;28;20565;-85
2022/04/08 06:13:05;;;;;;;0.88;0.88;;;5.10;99.90;;;;;;5050931;28;20666;-88
2022/04/08 06:15:35;;;;;;;0.75;0.75;;;4.90;99.90;;;;;;5052536;28;20392;-86
2022/04/08 06:18:09;;;;;;;0.77;0.77;;;4.80;99.90;;;;;;5052621;28;20543;-87
2022/04/08 06:20:35;;;;;;;0.90;0.90;;;4.70;99.90;;;;;;5050925;28;20020;-84
2022/04/08 06:23:00;;;;;;;0.90;0.90;;;4.60;99.90;;;;;;5051261;28;20504;-84
2022/04/08 06:25:26;;;;;;;3.03;0.98;;;4.50;99.90;;;;;;5052243;28;20031;-85
2022/04/08 06:28:04;;;;;;;1.48;0.93;;;4.50;99.90;;;;;;5052268;28;20032;-88
2022/04/08 06:30:32;;;;;;;1.63;0.85;;;4.60;99.90;;;;;;5059911;28;20049;-85
2022/04/08 06:33:42;;;;;;;2.10;0.73;;;4.60;99.90;;;;;;5039513;28;20029;-87
2022/04/08 06:36:08;;;;;;;1.38;0.90;;;4.60;99.90;;;;;;5036746;28;20558;-85
2022/04/08 06:38:37;;;;;;;2.05;0.90;;;4.60;99.90;;;;;;5052415;28;20100;-88
2022/04/08 06:41:02;;;;;;;0.80;0.80;;;4.60;99.90;;;;;;5032735;28;20366;-84
2022/04/08 06:43:47;;;;;;;1.08;1.00;;;4.70;99.90;;;;;;5031198;28;20033;-85
2022/04/08 06:46:22;;;;;;;0.88;0.88;;;4.80;99.90;;;;;;5033328;28;20037;-86
2022/04/08 06:49:02;;;;;;;2.65;0.90;;;4.90;99.90;;;;;;5030520;28;20073;-86
2022/04/08 06:51:47;;;;;;;0.75;0.73;;;5.00;99.90;;;;;;5032722;28;20425;-85
2022/04/08 06:54:13;;;;;;;0.95;0.80;;;5.00;99.90;;;;;;5035643;28;20386;-84
2022/04/08 06:56:39;;;;;;;3.83;1.05;;;5.10;99.90;;;;;;5036294;28;20025;-85
2022/04/08 06:59:12;;;;;;;2.55;1.23;;;5.10;99.90;;;;;;5036285;28;20025;-88
2022/04/08 07:01:38;;;;;;;4.75;1.20;;;5.10;99.90;;;;;;5036237;28;20022;-84
2022/04/08 07:04:05;;;;;;;1.85;1.05;;;5.10;99.90;;;;;;5045432;28;20029;-84
2022/04/08 07:06:30;;;;;;;4.93;1.83;;;5.00;99.90;;;;;;5055807;28;20377;-85
2022/04/08 07:09:10;;;;;;;4.47;1.13;;;5.00;99.90;;;;;;5055890;28;20025;-86
2022/04/08 07:11:36;;;;;;;8.90;1.30;;;5.00;99.90;;;;;;5038177;28;20034;-85
2022/04/08 07:14:07;;;;;;;10.27;2.63;;;5.00;99.90;;;;;;5055734;28;20025;-85
2022/04/08 07:16:32;;;;;;;6.88;1.17;;;5.00;99.90;;;;;;5055639;28;20021;-85
2022/04/08 07:19:46;;;;;;;7.85;1.80;;;5.00;99.90;;;;;;5055441;28;20025;-85
2022/04/08 07:22:11;;;;;;;8.88;1.80;;;5.10;99.90;;;;;;5055412;28;20480;-84
2022/04/08 07:24:37;;;;;;;14.13;2.22;;;5.20;99.90;;;;;;5055594;28;20027;-84
2022/04/08 07:27:03;;;;;;;17.98;3.72;;;5.30;99.90;;;;;;5054395;28;20130;-86
2022/04/08 07:29:29;;;;;;;16.67;2.53;;;5.20;99.90;;;;;;5055408;28;20033;-83
2022/04/08 07:31:55;;;;;;;15.75;2.10;;;5.30;99.90;;;;;;5055422;28;20025;-86
2022/04/08 07:34:20;;;;;;;12.65;1.90;;;5.40;99.90;;;;;;5055023;28;20021;-83
2022/04/08 07:36:46;;;;;;;9.45;1.63;;;5.40;99.90;;;;;;5054341;28;20108;-87
2022/04/08 07:39:12;;;;;;;13.10;1.88;;;5.50;99.90;;;;;;5055303;28;20024;-85
2022/04/08 07:41:38;;;;;;;13.05;1.95;;;5.50;99.90;;;;;;5054137;28;20028;-84
2022/04/08 07:44:05;;;;;;;8.02;2.20;;;5.50;99.90;;;;;;5055202;28;20025;-86
2022/04/08 07:46:30;;;;;;;8.15;1.67;;;5.60;99.90;;;;;;5055287;28;20025;-85
2022/04/08 07:49:03;;;;;;;8.93;2.58;;;5.60;99.90;;;;;;5054853;28;20025;-85
2022/04/08 07:51:28;;;;;;;17.65;2.70;;;5.60;99.90;;;;;;5053797;28;20025;-84
2022/04/08 07:53:58;;;;;;;18.50;2.05;;;5.70;99.90;;;;;;5053605;28;20384;-84
2022/04/08 07:56:23;;;;;;;14.43;2.05;;;5.70;99.90;;;;;;5054976;28;20104;-84
2022/04/08 07:58:52;;;;;;;9.15;2.30;;;5.70;99.90;;;;;;5054970;28;20477;-85
2022/04/08 08:01:18;;;;;;;11.18;2.15;;;5.70;99.90;;;;;;5053702;28;20598;-84
2022/04/08 08:03:51;;;;;;;19.92;2.05;;;5.80;99.90;;;;;;5054577;28;20041;-84
2022/04/08 08:06:16;;;;;;;17.60;2.55;;;5.90;99.90;;;;;;5054059;28;20021;-83
2022/04/08 08:08:42;;;;;;;6.20;1.40;;;5.80;99.90;;;;;;5055013;28;20052;-84
2022/04/08 08:11:11;;;;;;;29.30;6.45;;;5.90;99.90;;;;;;5070648;28;20554;-86
2022/04/08 08:13:38;;;;;;;8.95;1.90;;;5.90;99.90;;;;;;5074352;28;20422;-84
2022/04/08 08:16:17;;;;;;;8.52;2.30;;;6.00;99.90;;;;;;5074347;28;20020;-86
2022/04/08 08:18:42;;;;;;;15.82;1.80;;;6.10;99.90;;;;;;5074379;28;20028;-83
2022/04/08 08:21:09;;;;;;;13.07;2.42;;;6.00;99.90;;;;;;5074254;28;20112;-86
2022/04/08 08:23:34;;;;;;;12.18;2.35;;;6.00;99.90;;;;;;5074302;28;20020;-86
2022/04/08 08:26:00;;;;;;;10.10;2.13;;;6.10;99.90;;;;;;5056532;28;20020;-85
2022/04/08 08:28:25;;;;;;;22.70;2.63;;;6.30;99.90;;;;;;5056392;28;20562;-83
2022/04/08 08:30:54;;;;;;;17.42;2.60;;;6.30;99.90;;;;;;5074346;28;20025;-85
2022/04/08 08:33:19;;;;;;;14.00;2.88;;;6.20;99.90;;;;;;5056086;28;20083;-85
2022/04/08 08:35:47;;;;;;;14.15;2.53;;;6.20;99.90;;;;;;5074412;28;20039;-86
2022/04/08 08:38:12;;;;;;;16.52;2.40;;;6.30;99.90;;;;;;5074104;28;20017;-84
2022/04/08 08:40:45;;;;;;;21.80;2.47;;;6.40;99.90;;;;;;5074296;28;20036;-84
2022/04/08 08:43:17;;;;;;;13.52;2.42;;;6.40;99.90;;;;;;5074043;28;20024;-84
2022/04/08 08:45:49;;;;;;;8.00;1.98;;;6.60;99.90;;;;;;5074038;28;20054;-84
2022/04/08 08:48:15;;;;;;;22.17;2.50;;;6.50;99.90;;;;;;5073526;28;20025;-85
2022/04/08 08:50:53;;;;;;;9.30;2.15;;;6.60;99.90;;;;;;5074118;28;20017;-84
2022/04/08 08:53:19;;;;;;;7.53;1.80;;;6.60;99.90;;;;;;5055926;28;20134;-84
2022/04/08 08:55:57;;;;;;;14.70;2.65;;;6.60;99.90;;;;;;5073776;28;20024;-84
2022/04/08 08:58:23;;;;;;;12.80;2.42;;;6.70;99.90;;;;;;5073728;28;20392;-84
2022/04/08 09:00:52;;;;;;;14.48;2.15;;;6.70;99.90;;;;;;5073614;28;20033;-86
2022/04/08 09:03:18;;;;;;;14.27;2.00;;;6.90;99.90;;;;;;5055580;28;20027;-85
2022/04/08 09:05:45;;;;;;;28.42;2.58;;;6.90;99.90;;;;;;5073772;28;20024;-83
2022/04/08 09:08:13;;;;;;;13.65;2.38;;;6.90;99.90;;;;;;5055522;28;20032;-83
2022/04/08 09:10:43;;;;;;;10.35;2.10;;;6.90;99.90;;;;;;5073236;28;20044;-83
2022/04/08 09:13:20;;;;;;;21.48;2.72;;;6.90;99.90;;;;;;5073512;28;20021;-84
2022/04/08 09:15:55;;;;;;;7.20;2.50;;;7.00;99.90;;;;;;5073098;28;20024;-85
2022/04/08 09:18:29;;;;;;;14.73;2.75;;;6.90;99.90;;;;;;5072683;28;20430;-83
2022/04/08 09:20:56;;;;;;;15.60;2.35;;;6.90;99.90;;;;;;5073315;28;20032;-84
2022/04/08 09:23:22;;;;;;;11.30;2.08;;;6.80;99.90;;;;;;5073252;28;20475;-85
2022/04/08 09:25:48;;;;;;;16.45;2.60;;;6.90;99.90;;;;;;5073285;28;20063;-86
2022/04/08 09:28:20;;;;;;;8.98;1.77;;;6.80;99.90;;;;;;5055205;28;20028;-84
2022/04/08 09:30:53;;;;;;;15.68;2.65;;;6.90;99.90;;;;;;5072720;28;20013;-84
2022/04/08 09:33:23;;;;;;;17.15;2.65;;;7.00;99.90;;;;;;5072057;28;20027;-84
2022/04/08 09:35:52;;;;;;;8.98;2.47;;;7.00;99.90;;;;;;5073049;28;20020;-86
2022/04/08 09:38:25;;;;;;;11.05;1.83;;;7.10;99.90;;;;;;5054844;28;20042;-85
2022/04/08 09:41:11;;;;;;;17.08;2.30;;;7.30;99.90;;;;;;5072211;28;20033;-86
2022/04/08 09:43:38;;;;;;;18.15;2.72;;;7.50;99.90;;;;;;5072509;28;20028;-86
2022/04/08 09:46:21;;;;;;;10.93;2.28;;;7.50;99.90;;;;;;5072421;28;20541;-88
2022/04/08 09:48:48;;;;;;;8.32;2.13;;;7.60;99.90;;;;;;5072261;28;20116;-86
2022/04/08 09:51:23;;;;;;;13.20;2.30;;;7.70;99.90;;;;;;5072834;28;20353;-86
2022/04/08 09:53:57;;;;;;;11.10;2.28;;;7.70;99.90;;;;;;5072668;28;20074;-88
2022/04/08 09:56:35;;;;;;;15.15;3.22;;;7.70;99.90;;;;;;5072730;28;20036;-87
2022/04/08 09:59:21;;;;;;;11.45;2.33;;;7.70;99.90;;;;;;5054775;28;20524;-88
2022/04/08 10:01:47;;;;;;;18.48;3.28;;;7.70;99.90;;;;;;5072736;28;20020;-87
2022/04/08 10:04:14;;;;;;;10.50;2.20;;;7.70;99.90;;;;;;5072131;28;20495;-90
2022/04/08 10:06:42;;;;;;;16.38;4.25;;;7.70;99.90;;;;;;5072701;28;20025;-87
2022/04/08 10:09:14;;;;;;;11.10;2.60;;;7.60;99.90;;;;;;5072613;28;20480;-87
2022/04/08 10:12:13;;;;;;;10.45;2.35;;;7.50;99.90;;;;;;5072488;28;20032;-88
2022/04/08 10:14:50;;;;;;;8.52;2.13;;;7.50;99.90;;;;;;5054681;28;20025;-88
2022/04/08 10:17:19;;;;;;;8.55;2.20;;;7.50;99.90;;;;;;5054641;28;20017;-90
2022/04/08 10:19:45;;;;;;;11.40;2.28;;;7.50;99.90;;;;;;5072201;28;20484;-89
2022/04/08 10:22:20;;;;;;;8.82;1.85;;;7.50;99.90;;;;;;5054684;28;20121;-89
2022/04/08 10:24:56;;;;;;;11.70;2.60;;;7.60;99.90;;;;;;5072576;28;20025;-88
2022/04/08 10:27:35;;;;;;;15.25;3.08;;;7.60;99.90;;;;;;5072522;28;20036;-87
2022/04/08 10:30:22;;;;;;;12.70;2.50;;;7.60;99.90;;;;;;5076470;28;20536;-87
2022/04/08 10:33:07;;;;;;;11.23;2.17;;;7.60;99.90;;;;;;5058469;28;20082;-88
2022/04/08 10:35:32;;;;;;;17.08;2.90;;;7.70;99.90;;;;;;5076428;28;20573;-88
2022/04/08 10:38:06;;;;;;;14.00;1.85;;;7.80;99.90;;;;;;5076577;28;20029;-89
2022/04/08 10:40:37;;;;;;;8.05;1.77;;;7.70;99.90;;;;;;5058421;28;20032;-88
2022/04/08 10:43:11;;;;;;;9.10;2.30;;;7.70;99.90;;;;;;5076420;28;20095;-88
2022/04/08 10:45:38;;;;;;;9.87;2.43;;;7.70;99.90;;;;;;5058574;28;20472;-89
2022/04/08 10:48:14;;;;;;;13.95;2.67;;;7.70;99.90;;;;;;5076059;28;20033;-89
2022/04/08 10:50:42;;;;;;;12.35;1.88;;;7.70;99.90;;;;;;5076387;28;20078;-87
2022/04/08 10:53:09;;;;;;;10.35;2.03;;;7.70;99.90;;;;;;5076109;28;20032;-87
2022/04/08 10:55:50;;;;;;;10.68;2.20;;;7.70;99.90;;;;;;5058370;28;20400;-89
2022/04/08 10:58:39;;;;;;;6.47;1.77;;;7.80;99.90;;;;;;5058884;28;20029;-93
2022/04/08 11:01:23;;;;;;;9.63;2.15;;;7.90;99.90;;;;;;5058591;28;20533;-93
2022/04/08 11:04:01;;;;;;;12.00;2.03;;;8.00;99.90;;;;;;5058790;28;20406;-94
2022/04/08 11:06:28;;;;;;;22.20;2.50;;;7.90;99.90;;;;;;5059041;28;20028;-93
2022/04/08 11:09:14;;;;;;;9.23;2.10;;;8.00;99.90;;;;;;5058958;28;20025;-94
2022/04/08 11:11:42;;;;;;;14.73;2.65;;;8.00;99.90;;;;;;5058922;28;20032;-93
2022/04/08 11:14:08;;;;;;;8.88;2.10;;;8.20;99.90;;;;;;5058244;28;20416;-95
2022/04/08 11:16:41;;;;;;;7.93;1.63;;;8.20;99.90;;;;;;5058639;28;20115;-90
2022/04/08 11:19:08;;;;;;;6.03;1.80;;;8.20;99.90;;;;;;5058123;28;20024;-93
2022/04/08 11:21:35;;;;;;;6.15;2.05;;;8.10;99.90;;;;;;5058312;28;20032;-92
2022/04/08 11:24:13;;;;;;;5.45;1.85;;;8.10;99.90;;;;;;5058761;28;20025;-91
2022/04/08 11:26:43;;;;;;;8.05;1.67;;;8.20;99.90;;;;;;5058418;28;20020;-93
2022/04/08 11:29:36;;;;;;;9.82;1.60;;;8.10;99.90;;;;;;5076108;28;20408;-93
2022/04/08 11:32:16;;;;;;;6.65;1.40;;;8.20;99.90;;;;;;5058214;28;20115;-93
2022/04/08 11:34:42;;;;;;;12.55;1.85;;;8.20;99.90;;;;;;5058146;28;20086;-92
2022/04/08 11:37:08;;;;;;;7.75;1.80;;;8.20;99.90;;;;;;5058006;28;20029;-91
2022/04/08 11:39:40;;;;;;;5.75;1.70;;;8.20;99.90;;;;;;5074494;28;20556;-92
2022/04/08 11:42:05;;;;;;;11.88;2.22;;;8.20;99.90;;;;;;5075863;28;20472;-94
2022/04/08 11:44:44;;;;;;;9.00;2.08;;;8.20;99.90;;;;;;5057477;28;20024;-92
2022/04/08 11:47:11;;;;;;;11.32;1.73;;;8.20;99.90;;;;;;5058058;28;20118;-91
2022/04/08 11:49:36;;;;;;;13.27;2.90;;;8.30;99.90;;;;;;5075647;28;20486;-90
2022/04/08 11:52:24;;;;;;;10.55;1.90;;;8.30;99.90;;;;;;5075574;28;20048;-90
2022/04/08 11:54:49;;;;;;;7.65;2.15;;;8.30;99.90;;;;;;5057135;28;20055;-90
2022/04/08 11:57:42;;;;;;;9.18;2.88;;;8.40;99.90;;;;;;5075245;28;20055;-92
2022/04/08 12:00:08;;;;;;;6.80;1.88;;;8.50;99.90;;;;;;5037530;28;20551;-92
2022/04/08 12:02:36;;;;;;;8.25;1.90;;;8.60;99.90;;;;;;5055050;28;20060;-91
2022/04/08 12:05:03;;;;;;;17.40;2.72;;;8.60;99.90;;;;;;5058731;28;20052;-91
2022/04/08 12:07:40;;;;;;;10.32;1.90;;;8.60;99.90;;;;;;5075046;28;20039;-90
2022/04/08 12:13:42;;;;;;;12.52;2.20;;;8.80;99.90;;;;;;5074955;28;20028;-92
2022/04/08 12:16:13;;;;;;;8.43;3.00;;;8.80;99.90;;;;;;5075070;28;20460;-90
2022/04/08 12:18:51;;;;;;;13.40;2.15;;;8.80;99.90;;;;;;5074906;28;20029;-91
2022/04/08 12:21:39;;;;;;;13.88;2.78;;;8.80;99.90;;;;;;5074196;28;20033;-93
2022/04/08 12:24:07;;;;;;;6.75;1.67;;;8.90;99.90;;;;;;5073606;28;20115;-91
2022/04/08 12:26:37;;;;;;;10.43;2.35;;;8.90;99.90;;;;;;5074078;28;20548;-91
2022/04/08 12:29:12;;;;;;;9.25;2.05;;;9.00;99.90;;;;;;5056269;28;20073;-90
2022/04/08 12:32:24;;;;;;;7.97;2.63;;;9.00;99.90;;;;;;5061592;28;20492;-93
2022/04/08 12:34:50;;;;;;;8.75;1.90;;;9.00;99.90;;;;;;5036565;28;20025;-94
2022/04/08 12:37:16;;;;;;;14.48;2.28;;;9.00;99.90;;;;;;5036720;28;20025;-95
2022/04/08 12:39:41;;;;;;;15.45;2.70;;;8.90;99.90;;;;;;5036825;28;20078;-95
2022/04/08 12:42:13;;;;;;;8.27;1.80;;;8.90;99.90;;;;;;5036961;28;20025;-93
2022/04/08 12:44:38;;;;;;;7.28;1.63;;;8.90;99.90;;;;;;5051719;28;20023;-93
2022/04/08 12:47:05;;;;;;;14.32;2.28;;;8.80;99.90;;;;;;5074597;28;20103;-91
2022/04/08 12:49:31;;;;;;;7.03;2.00;;;8.80;99.90;;;;;;5056437;28;20032;-91
2022/04/08 12:51:58;;;;;;;7.30;1.55;;;8.70;99.90;;;;;;5055956;28;20021;-90
2022/04/08 12:54:24;;;;;;;8.82;1.83;;;8.70;99.90;;;;;;5073989;28;20108;-92
2022/04/08 12:57:31;;;;;;;10.68;2.08;;;8.70;99.90;;;;;;5056787;28;20048;-92
2022/04/08 12:59:56;;;;;;;9.68;1.92;;;8.70;99.90;;;;;;5056129;28;20028;-90
2022/04/08 13:02:26;;;;;;;15.73;2.35;;;8.60;99.90;;;;;;5055979;28;20032;-93
2022/04/08 13:04:52;;;;;;;7.30;1.88;;;8.60;99.90;;;;;;5056078;28;20119;-93
2022/04/08 13:07:22;;;;;;;10.02;2.30;;;8.60;99.90;;;;;;5056296;28;20436;-90
2022/04/08 13:09:51;;;;;;;4.65;2.10;;;8.60;99.90;;;;;;5053070;28;20033;-91
2022/04/08 13:12:16;;;;;;;4.78;1.63;;;8.50;99.90;;;;;;5052989;28;20025;-93
2022/04/08 13:14:47;;;;;;;11.02;2.25;;;8.50;99.60;;;;;;5052637;28;20070;-90
2022/04/08 13:17:12;;;;;;;8.15;1.20;;;8.50;99.80;;;;;;5052367;28;20469;-90
2022/04/08 13:19:41;;;;;;;2.65;1.40;;;8.40;99.90;;;;;;5052748;28;20072;-92
2022/04/08 13:22:06;;;;;;;7.25;1.40;;;8.50;99.90;;;;;;5053550;28;20051;-91
2022/04/08 13:24:34;;;;;;;5.28;1.55;;;8.50;99.90;;;;;;5052015;28;20025;-92